createdAt,value
2022-12-23T00:01:22.607Z,99957.31
2022-12-23T00:03:49.056Z,99947.00
2022-12-23T00:06:17.415Z,99958.69
2022-12-23T00:08:44.411Z,99951.63
2022-12-23T00:11:14.200Z,99958.28
2022-12-23T00:13:59.230Z,99954.69
2022-12-23T00:16:25.950Z,99952.03
2022-12-23T00:18:54.256Z,99953.84
2022-12-23T00:21:21.915Z,99952.03
2022-12-23T00:23:50.309Z,99948.81
2022-12-23T00:26:25.068Z,99953.44
2022-12-23T00:28:52.147Z,99944.78
2022-12-23T00:31:19.337Z,99956.50
2022-12-23T00:33:49.537Z,99956.91
2022-12-23T00:36:21.893Z,99959.53
2022-12-23T00:39:07.499Z,99964.97
2022-12-23T00:41:52.693Z,99957.31
2022-12-23T00:44:19.423Z,99966.78
2022-12-23T00:46:45.928Z,99961.53
2022-12-23T00:49:36.462Z,99970.44
2022-12-23T00:52:04.176Z,99974.06
2022-12-23T00:54:31.904Z,99974.69
2022-12-23T00:56:59.011Z,99965.97
2022-12-23T00:59:25.422Z,99966.22
2022-12-23T01:02:10.243Z,99968.03
2022-12-23T01:04:55.665Z,99976.31
2022-12-23T01:07:23.275Z,99973.50
2022-12-23T01:09:49.834Z,99972.28
2022-12-23T01:12:16.254Z,99980.19
2022-12-23T01:14:42.704Z,99976.72
2022-12-23T01:17:09.454Z,99979.34
2022-12-23T01:19:36.455Z,99994.50
2022-12-23T01:22:03.101Z,99992.50
2022-12-23T01:24:31.141Z,99994.09
2022-12-23T01:26:58.068Z,99988.47
2022-12-23T01:29:25.057Z,99998.00
2022-12-23T01:31:51.628Z,99999.84
2022-12-23T01:34:18.184Z,100006.09
2022-12-23T01:36:44.636Z,100006.28
2022-12-23T01:39:11.028Z,100012.97
2022-12-23T01:41:55.924Z,100008.75
2022-12-23T01:44:50.192Z,100007.16
2022-12-23T01:47:26.664Z,100019.09
2022-12-23T01:50:02.928Z,100020.09
2022-12-23T01:52:30.523Z,100019.25
2022-12-23T01:54:57.527Z,100016.06
2022-12-23T01:57:24.648Z,100016.88
2022-12-23T02:00:09.683Z,100020.31
2022-12-23T02:02:57.294Z,100019.28
2022-12-23T02:05:24.222Z,100024.75
2022-12-23T02:08:10.876Z,100018.50
2022-12-23T02:10:55.873Z,100021.75
2022-12-23T02:13:34.720Z,100022.94
2022-12-23T02:16:16.791Z,100019.72
2022-12-23T02:18:49.166Z,100010.41
2022-12-23T02:21:28.135Z,100013.06
2022-12-23T02:24:03.802Z,100021.75
2022-12-23T02:26:51.401Z,100027.41
2022-12-23T02:29:23.506Z,100029.66
2022-12-23T02:31:52.892Z,100044.81
2022-12-23T02:34:21.229Z,100042.19
2022-12-23T02:37:26.548Z,100054.91
2022-12-23T02:40:07.779Z,100060.19
2022-12-23T02:43:02.072Z,100061.81
2022-12-23T02:45:52.832Z,100066.47
2022-12-23T02:48:46.654Z,100062.44
2022-12-23T02:51:14.963Z,100055.94
2022-12-23T02:53:49.093Z,100071.31
2022-12-23T02:56:19.422Z,100076.56
2022-12-23T02:59:12.642Z,100069.72
2022-12-23T03:01:40.011Z,100070.91
2022-12-23T03:04:06.850Z,100085.47
2022-12-23T03:06:38.577Z,100083.84
2022-12-23T03:09:05.430Z,100087.09
2022-12-23T03:12:02.967Z,100094.38
2022-12-23T03:14:59.717Z,100098.44
2022-12-23T03:17:50.075Z,100106.53
2022-12-23T03:20:44.253Z,100111.38
2022-12-23T03:23:28.486Z,100115.66
2022-12-23T03:26:03.612Z,100114.63
2022-12-23T03:28:41.102Z,100123.34
2022-12-23T03:31:11.679Z,100121.91
2022-12-23T03:33:43.354Z,100116.03
2022-12-23T03:36:18.731Z,100120.09
2022-12-23T03:38:45.884Z,100106.72
2022-12-23T03:41:20.953Z,100109.78
2022-12-23T03:43:55.789Z,100107.50
2022-12-23T03:46:34.903Z,100114.78
2022-12-23T03:49:06.566Z,100105.88
2022-12-23T03:51:39.567Z,100112.72
2022-12-23T03:54:15.085Z,100112.53
2022-12-23T03:56:45.611Z,100112.53
2022-12-23T03:59:18.243Z,100110.34
2022-12-23T04:02:06.022Z,100108.09
2022-12-23T04:04:57.669Z,100102.84
2022-12-23T04:07:30.858Z,100100.81
2022-12-23T04:09:58.175Z,100108.28
2022-12-23T04:12:26.975Z,100109.13
2022-12-23T04:14:53.637Z,100111.91
2022-12-23T04:17:20.427Z,100127.31
2022-12-23T04:19:47.370Z,100117.19
2022-12-23T04:22:15.629Z,100112.31
2022-12-23T04:24:42.525Z,100105.25
2022-12-23T04:27:12.248Z,100111.91
2022-12-23T04:29:38.682Z,100114.94
2022-12-23T04:32:05.678Z,100114.75
2022-12-23T04:34:32.073Z,100115.78
2022-12-23T04:36:58.529Z,100110.69
2022-12-23T04:39:24.860Z,100113.50
2022-12-23T04:41:51.351Z,100118.56
2022-12-23T04:44:17.783Z,100114.34
2022-12-23T04:46:45.360Z,100122.38
2022-12-23T04:49:11.822Z,100126.03
2022-12-23T04:51:38.158Z,100127.03
2022-12-23T04:54:04.683Z,100131.06
2022-12-23T04:56:31.100Z,100127.03
2022-12-23T04:58:57.558Z,100132.50
2022-12-23T05:01:23.974Z,100132.50
2022-12-23T05:03:50.383Z,100127.03
2022-12-23T05:06:16.774Z,100126.41
2022-12-23T05:08:43.162Z,100134.91
2022-12-23T05:11:09.567Z,100146.25
2022-12-23T05:13:35.975Z,100147.06
2022-12-23T05:16:02.539Z,100137.38
2022-12-23T05:18:28.921Z,100139.00
2022-12-23T05:20:55.378Z,100135.38
2022-12-23T05:23:21.800Z,100135.16
2022-12-23T05:25:53.318Z,100139.81
2022-12-23T05:28:21.337Z,100133.53
2022-12-23T05:30:48.167Z,100130.28
2022-12-23T05:33:14.935Z,100126.47
2022-12-23T05:35:41.647Z,100118.56
2022-12-23T05:38:08.044Z,100127.06
2022-12-23T05:40:34.495Z,100133.72
2022-12-23T05:43:01.036Z,100132.75
2022-12-23T05:45:27.523Z,100125.03
2022-12-23T05:47:53.939Z,100136.34
2022-12-23T05:50:20.291Z,100146.50
2022-12-23T05:52:46.681Z,100153.78
2022-12-23T05:55:13.010Z,100162.03
2022-12-23T05:57:39.462Z,100161.66
2022-12-23T06:00:06.550Z,100166.31
2022-12-23T06:02:33.185Z,100171.78
2022-12-23T06:04:59.787Z,100176.97
2022-12-23T06:07:26.180Z,100172.53
2022-12-23T06:09:52.625Z,100182.06
2022-12-23T06:12:19.005Z,100184.88
2022-12-23T06:14:45.386Z,100184.88
2022-12-23T06:17:11.844Z,100188.13
2022-12-23T06:19:38.243Z,100187.34
2022-12-23T06:22:04.644Z,100187.34
2022-12-23T06:24:31.062Z,100178.44
2022-12-23T06:26:57.774Z,100177.81
2022-12-23T06:29:24.914Z,100174.19
2022-12-23T06:31:51.423Z,100172.75
2022-12-23T06:34:18.044Z,100173.16
2022-12-23T06:36:44.590Z,100170.53
2022-12-23T06:39:11.690Z,100166.47
2022-12-23T06:41:38.101Z,100163.84
2022-12-23T06:44:04.749Z,100163.06
2022-12-23T06:46:31.513Z,100155.34
2022-12-23T06:48:58.119Z,100157.38
2022-12-23T06:51:24.612Z,100152.13
2022-12-23T06:53:50.937Z,100149.69
2022-12-23T06:56:18.596Z,100147.06
2022-12-23T06:58:44.995Z,100156.56
2022-12-23T07:01:11.530Z,100162.84
2022-12-23T07:03:38.058Z,100162.84
2022-12-23T07:06:04.685Z,100163.41
2022-12-23T07:08:31.103Z,100155.34
2022-12-23T07:10:59.557Z,100159.78
2022-12-23T07:13:26.803Z,100177.56
2022-12-23T07:15:53.339Z,100178.56
2022-12-23T07:18:21.978Z,100193.53
2022-12-23T07:20:48.628Z,100209.91
2022-12-23T07:23:15.248Z,100218.81
2022-12-23T07:25:41.624Z,100218.00
2022-12-23T07:28:08.108Z,100232.03
2022-12-23T07:30:35.106Z,100236.00
2022-12-23T07:33:01.630Z,100233.22
2022-12-23T07:35:28.146Z,100234.03
2022-12-23T07:37:56.087Z,100238.84
2022-12-23T07:40:23.389Z,100223.69
2022-12-23T07:42:50.433Z,100227.13
2022-12-23T07:45:16.908Z,100225.50
2022-12-23T07:47:43.592Z,100236.66
2022-12-23T07:50:10.256Z,100232.41
2022-12-23T07:52:36.834Z,100235.22
2022-12-23T07:55:04.060Z,100228.38
2022-12-23T07:57:30.434Z,100237.72
2022-12-23T07:59:56.838Z,100225.38
2022-12-23T08:02:25.167Z,100219.50
2022-12-23T08:04:52.023Z,100224.75
2022-12-23T08:07:18.490Z,100228.00
2022-12-23T08:09:44.889Z,100222.94
2022-12-23T08:12:11.325Z,100222.94
2022-12-23T08:14:37.659Z,100219.50
2022-12-23T08:17:04.092Z,100228.00
2022-12-23T08:19:30.501Z,100218.69
2022-12-23T08:21:56.849Z,100223.94
2022-12-23T08:24:23.259Z,100221.31
2022-12-23T08:26:49.632Z,100219.94
2022-12-23T08:29:16.041Z,100214.66
2022-12-23T08:31:42.647Z,100202.72
2022-12-23T08:34:09.203Z,100203.53
2022-12-23T08:36:36.568Z,100206.97
2022-12-23T08:39:06.375Z,100204.53
2022-12-23T08:41:37.193Z,100200.91
2022-12-23T08:44:03.708Z,100194.81
2022-12-23T08:46:30.213Z,100196.47
2022-12-23T08:48:56.979Z,100194.81
2022-12-23T08:51:25.226Z,100198.53
2022-12-23T08:53:59.782Z,100195.84
2022-12-23T08:56:31.483Z,100206.16
2022-12-23T08:58:57.963Z,100206.59
2022-12-23T09:01:27.206Z,100194.44
2022-12-23T09:03:54.033Z,100214.88
2022-12-23T09:06:34.786Z,100204.97
2022-12-23T09:09:01.221Z,100214.09
2022-12-23T09:11:29.783Z,100216.47
2022-12-23T09:13:58.495Z,100220.34
2022-12-23T09:16:25.544Z,100214.31
2022-12-23T09:18:51.925Z,100207.19
2022-12-23T09:21:20.460Z,100206.22
2022-12-23T09:23:47.473Z,100204.56
2022-12-23T09:26:19.332Z,100190.81
2022-12-23T09:28:45.765Z,100206.78
2022-12-23T09:31:13.257Z,100201.72
2022-12-23T09:33:40.314Z,100195.44
2022-12-23T09:36:07.160Z,100191.00
2022-12-23T09:38:34.369Z,100185.53
2022-12-23T09:41:14.898Z,100185.53
2022-12-23T09:43:57.204Z,100177.66
2022-12-23T09:46:27.267Z,100177.09
2022-12-23T09:49:11.100Z,100179.91
2022-12-23T09:51:38.376Z,100171.44
2022-12-23T09:54:24.277Z,100169.81
2022-12-23T09:56:58.308Z,100163.16
2022-12-23T09:59:49.511Z,100148.97
2022-12-23T10:02:39.863Z,100143.09
2022-12-23T10:05:25.395Z,100145.34
2022-12-23T10:08:12.520Z,100134.00
2022-12-23T10:10:56.655Z,100136.66
2022-12-23T10:13:32.090Z,100141.50
2022-12-23T10:16:03.352Z,100130.56
2022-12-23T10:18:32.593Z,100136.03
2022-12-23T10:21:04.910Z,100118.03
2022-12-23T10:23:36.704Z,100109.94
2022-12-23T10:26:15.525Z,100103.91
2022-12-23T10:28:41.906Z,100097.41
2022-12-23T10:31:39.360Z,100085.03
2022-12-23T10:34:20.996Z,100076.38
2022-12-23T10:37:03.753Z,100083.88
2022-12-23T10:39:48.546Z,100082.66
2022-12-23T10:43:10.542Z,100092.97
2022-12-23T10:45:51.593Z,100090.59
2022-12-23T10:48:43.563Z,100090.59
2022-12-23T10:51:17.740Z,100079.03
2022-12-23T10:53:52.977Z,100070.97
2022-12-23T10:56:20.459Z,100077.09
2022-12-23T10:58:51.734Z,100071.97
2022-12-23T11:01:26.573Z,100062.84
2022-12-23T11:04:13.356Z,100051.09
2022-12-23T11:06:44.407Z,100050.06
2022-12-23T11:09:21.783Z,100049.28
2022-12-23T11:12:00.373Z,100034.28
2022-12-23T11:14:37.831Z,100032.69
2022-12-23T11:17:06.216Z,100036.13
2022-12-23T11:19:32.724Z,100036.91
2022-12-23T11:22:00.723Z,100035.31
2022-12-23T11:24:35.350Z,100033.69
2022-12-23T11:27:11.452Z,100027.00
2022-12-23T11:29:45.573Z,100022.16
2022-12-23T11:32:18.410Z,100016.50
2022-12-23T11:34:47.599Z,100012.22
2022-12-23T11:37:36.680Z,99999.94
2022-12-23T11:40:23.141Z,100001.56
2022-12-23T11:43:02.125Z,99995.91
2022-12-23T11:45:32.891Z,99977.94
2022-12-23T11:47:59.796Z,99965.56
2022-12-23T11:50:38.383Z,99956.25
2022-12-23T11:53:23.173Z,99946.59
2022-12-23T11:55:59.192Z,99930.75
2022-12-23T11:58:27.839Z,99926.31
2022-12-23T12:00:59.709Z,99919.44
2022-12-23T12:03:32.136Z,99911.53
2022-12-23T12:06:02.408Z,99904.25
2022-12-23T12:08:33.216Z,99897.34
2022-12-23T12:11:07.774Z,99884.22
2022-12-23T12:13:42.801Z,99878.16
2022-12-23T12:16:12.049Z,99870.88
2022-12-23T12:18:41.907Z,99867.63
2022-12-23T12:21:16.423Z,99871.47
2022-12-23T12:23:45.983Z,99874.88
2022-12-23T12:26:24.688Z,99874.25
2022-12-23T12:28:59.154Z,99876.69
2022-12-23T12:31:40.952Z,99876.28
2022-12-23T12:34:34.925Z,99871.41
2022-12-23T12:37:19.788Z,99868.59
2022-12-23T12:39:54.109Z,99859.06
2022-12-23T12:42:27.846Z,99851.78
2022-12-23T12:45:27.171Z,99847.94
2022-12-23T12:48:18.150Z,99843.28
2022-12-23T12:50:56.950Z,99839.03
2022-12-23T12:53:23.915Z,99835.97
2022-12-23T12:55:59.998Z,99818.59
2022-12-23T12:58:26.664Z,99809.47
2022-12-23T13:01:24.555Z,99797.59
2022-12-23T13:04:23.730Z,99783.59
2022-12-23T13:07:18.380Z,99773.50
2022-12-23T13:10:06.729Z,99782.81
2022-12-23T13:12:53.791Z,99781.81
2022-12-23T13:15:20.094Z,99771.09
2022-12-23T13:17:46.471Z,99764.78
2022-12-23T13:20:34.667Z,99758.13
2022-12-23T13:23:41.625Z,99758.13
2022-12-23T13:26:09.704Z,99753.03
2022-12-23T13:29:25.409Z,99744.38
2022-12-23T13:32:02.313Z,99725.97
2022-12-23T13:34:48.171Z,99694.03
2022-12-23T13:37:32.743Z,99705.56
2022-12-23T13:40:27.615Z,99711.59
2022-12-23T13:42:59.728Z,99698.28
2022-12-23T13:45:34.514Z,99683.34
2022-12-23T13:48:33.244Z,99692.41
2022-12-23T13:51:15.124Z,99687.56
2022-12-23T13:54:14.611Z,99680.06
2022-12-23T13:56:52.709Z,99665.13
2022-12-23T13:59:19.140Z,99655.63
2022-12-23T14:01:52.349Z,99659.47
2022-12-23T14:04:35.844Z,99633.19
2022-12-23T14:07:21.892Z,99635.00
2022-12-23T14:09:56.023Z,99629.97
2022-12-23T14:12:28.574Z,99631.56
2022-12-23T14:15:04.405Z,99630.34
2022-12-23T14:17:45.203Z,99624.28
2022-12-23T14:20:34.292Z,99623.91
2022-12-23T14:23:16.847Z,99619.47
2022-12-23T14:26:11.323Z,99613.19
2022-12-23T14:29:10.210Z,99618.03
2022-12-23T14:31:45.901Z,99624.50
2022-12-23T14:34:18.044Z,99619.84
2022-12-23T14:37:23.025Z,99607.31
2022-12-23T14:39:50.594Z,99593.38
2022-12-23T14:42:35.108Z,99595.38
2022-12-23T14:45:35.485Z,99591.34
2022-12-23T14:48:33.514Z,99588.53
2022-12-23T14:51:21.053Z,99573.97
2022-12-23T14:54:03.058Z,99583.06
2022-12-23T14:56:47.621Z,99586.72
2022-12-23T14:59:40.408Z,99584.69
2022-12-23T15:02:12.564Z,99591.53
2022-12-23T15:04:53.239Z,99579.44
2022-12-23T15:07:29.164Z,99590.53
2022-12-23T15:10:01.128Z,99593.34
2022-12-23T15:12:40.274Z,99589.72
2022-12-23T15:15:18.745Z,99587.31
2022-12-23T15:17:45.955Z,99583.44
2022-12-23T15:20:22.489Z,99582.22
2022-12-23T15:22:49.922Z,99578.19
2022-12-23T15:25:24.280Z,99578.78
2022-12-23T15:27:59.078Z,99584.03
2022-12-23T15:30:31.479Z,99585.06
2022-12-23T15:33:06.436Z,99595.97
2022-12-23T15:35:42.900Z,99586.84
2022-12-23T15:38:14.526Z,99583.22
2022-12-23T15:40:41.088Z,99585.03
2022-12-23T15:43:20.356Z,99587.44
2022-12-23T15:45:46.744Z,99586.81
2022-12-23T15:48:28.377Z,99588.81
2022-12-23T15:51:49.701Z,99598.34
2022-12-23T15:54:09.080Z,99579.94
2022-12-23T15:56:38.705Z,99600.34
2022-12-23T15:59:05.768Z,99601.75
2022-12-23T16:01:40.953Z,99601.56
2022-12-23T16:04:08.875Z,99601.13
2022-12-23T16:06:36.498Z,99610.44
2022-12-23T16:09:05.202Z,99609.81
2022-12-23T16:11:49.728Z,99612.22
2022-12-23T16:14:31.490Z,99611.63
2022-12-23T16:16:59.740Z,99616.66
2022-12-23T16:19:52.191Z,99615.03
2022-12-23T16:22:27.092Z,99614.59
2022-12-23T16:25:09.688Z,99628.16
2022-12-23T16:27:39.590Z,99628.94
2022-12-23T16:30:30.605Z,99620.59
2022-12-23T16:33:00.195Z,99625.34
2022-12-23T16:35:39.858Z,99628.34
2022-12-23T16:38:12.334Z,99623.91
2022-12-23T16:40:39.837Z,99625.31
2022-12-23T16:43:06.622Z,99635.06
2022-12-23T16:45:34.444Z,99632.38
2022-12-23T16:48:02.594Z,99640.63
2022-12-23T16:50:29.432Z,99630.69
2022-12-23T16:52:56.349Z,99647.31
2022-12-23T16:55:22.983Z,99653.97
2022-12-23T16:57:50.558Z,99663.16
2022-12-23T17:00:19.605Z,99662.50
2022-12-23T17:02:48.098Z,99671.81
2022-12-23T17:05:19.801Z,99692.31
2022-12-23T17:07:46.781Z,99680.06
2022-12-23T17:10:16.110Z,99686.56
2022-12-23T17:12:44.354Z,99679.50
2022-12-23T17:15:19.668Z,99689.69
2022-12-23T17:17:47.242Z,99703.66
2022-12-23T17:20:13.743Z,99696.19
2022-12-23T17:22:42.994Z,99701.31
2022-12-23T17:25:12.842Z,99717.78
2022-12-23T17:27:39.760Z,99743.09
2022-12-23T17:30:10.612Z,99733.78
2022-12-23T17:32:37.087Z,99738.47
2022-12-23T17:35:03.603Z,99742.34
2022-12-23T17:37:31.377Z,99745.19
2022-12-23T17:39:57.909Z,99751.69
2022-12-23T17:42:26.093Z,99754.38
2022-12-23T17:44:52.729Z,99751.91
2022-12-23T17:47:21.435Z,99765.25
2022-12-23T17:49:48.988Z,99758.16
2022-12-23T17:52:24.580Z,99767.53
2022-12-23T17:54:51.539Z,99772.78
2022-12-23T17:57:26.243Z,99767.06
2022-12-23T17:59:54.193Z,99767.34
2022-12-23T18:02:23.038Z,99769.00
2022-12-23T18:04:50.548Z,99775.28
2022-12-23T18:07:17.281Z,99769.19
2022-12-23T18:09:43.808Z,99769.06
2022-12-23T18:12:32.472Z,99786.31
2022-12-23T18:14:58.924Z,99774.28
2022-12-23T18:17:25.331Z,99783.44
2022-12-23T18:19:51.812Z,99793.63
2022-12-23T18:22:20.720Z,99796.72
2022-12-23T18:24:52.304Z,99802.41
2022-12-23T18:27:23.036Z,99801.41
2022-12-23T18:29:50.504Z,99810.31
2022-12-23T18:32:28.061Z,99821.03
2022-12-23T18:34:55.799Z,99812.13
2022-12-23T18:37:23.511Z,99818.03
2022-12-23T18:39:50.160Z,99823.69
2022-12-23T18:42:18.742Z,99822.41
2022-12-23T18:44:46.537Z,99832.59
2022-12-23T18:47:12.967Z,99830.75
2022-12-23T18:49:39.616Z,99830.94
2022-12-23T18:52:12.505Z,99840.28
2022-12-23T18:54:39.709Z,99846.38
2022-12-23T18:57:06.261Z,99843.13
2022-12-23T18:59:34.124Z,99842.34
2022-12-23T19:02:00.748Z,99835.81
2022-12-23T19:04:27.673Z,99839.09
2022-12-23T19:06:55.783Z,99845.16
2022-12-23T19:09:26.034Z,99852.94
2022-12-23T19:11:54.148Z,99852.28
2022-12-23T19:14:20.944Z,99852.06
2022-12-23T19:16:51.563Z,99857.94
2022-12-23T19:19:19.033Z,99859.78
2022-12-23T19:21:45.470Z,99863.69
2022-12-23T19:24:11.897Z,99868.53
2022-12-23T19:26:38.239Z,99859.78
2022-12-23T19:29:04.644Z,99850.28
2022-12-23T19:31:33.725Z,99861.63
2022-12-23T19:34:00.551Z,99862.63
2022-12-23T19:36:27.065Z,99862.38
2022-12-23T19:38:53.493Z,99867.06
2022-12-23T19:41:19.935Z,99872.72
2022-12-23T19:43:47.122Z,99869.69
2022-12-23T19:46:15.500Z,99887.75
2022-12-23T19:48:42.624Z,99887.31
2022-12-23T19:51:12.155Z,99901.53
2022-12-23T19:53:40.974Z,99907.19
2022-12-23T19:56:16.678Z,99907.41
2022-12-23T19:58:44.149Z,99915.91
2022-12-23T20:01:16.208Z,99910.44
2022-12-23T20:03:44.220Z,99923.00
2022-12-23T20:06:16.456Z,99927.06
2022-12-23T20:08:43.756Z,99944.13
2022-12-23T20:11:13.736Z,99936.63
2022-12-23T20:13:40.624Z,99944.53
2022-12-23T20:16:07.512Z,99939.66
2022-12-23T20:18:34.223Z,99939.88
2022-12-23T20:21:01.097Z,99958.91
2022-12-23T20:23:29.187Z,99967.00
2022-12-23T20:25:55.700Z,99963.19
2022-12-23T20:28:22.537Z,99968.88
2022-12-23T20:30:49.080Z,99971.13
2022-12-23T20:33:16.181Z,99988.78
2022-12-23T20:35:42.990Z,99988.56
2022-12-23T20:38:09.561Z,99992.41
2022-12-23T20:40:36.079Z,99986.75
2022-12-23T20:43:03.370Z,99995.06
2022-12-23T20:45:29.788Z,100009.06
2022-12-23T20:47:56.168Z,100011.25
2022-12-23T20:50:22.586Z,100011.91
2022-12-23T20:52:51.189Z,100011.28
2022-12-23T20:55:17.561Z,100017.34
2022-12-23T20:57:45.434Z,100025.47
2022-12-23T21:00:13.186Z,100025.47
2022-12-23T21:02:44.000Z,100030.53
2022-12-23T21:05:10.515Z,100026.06
2022-12-23T21:07:36.893Z,100027.06
2022-12-23T21:10:03.881Z,100032.16
2022-12-23T21:12:30.412Z,100036.41
2022-12-23T21:14:56.935Z,100041.91
2022-12-23T21:17:23.775Z,100047.97
2022-12-23T21:19:50.210Z,100044.53
2022-12-23T21:22:16.572Z,100049.41
2022-12-23T21:24:42.902Z,100033.59
2022-12-23T21:27:09.337Z,100045.94
2022-12-23T21:29:35.717Z,100044.31
2022-12-23T21:32:02.900Z,100054.47
2022-12-23T21:34:29.430Z,100056.72
2022-12-23T21:36:55.983Z,100067.66
2022-12-23T21:39:22.512Z,100074.94
2022-12-23T21:41:51.303Z,100080.81
2022-12-23T21:44:17.927Z,100073.53
2022-12-23T21:46:44.457Z,100080.59
2022-12-23T21:49:11.538Z,100084.44
2022-12-23T21:51:40.621Z,100086.47
2022-12-23T21:54:08.635Z,100088.09
2022-12-23T21:56:35.561Z,100096.81
2022-12-23T21:59:05.906Z,100098.25
2022-12-23T22:01:35.042Z,100110.16
2022-12-23T22:04:01.984Z,100104.72
2022-12-23T22:06:31.949Z,100103.91
2022-12-23T22:08:58.963Z,100109.78
2022-12-23T22:11:27.948Z,100103.09
2022-12-23T22:13:56.477Z,100106.53
2022-12-23T22:16:25.096Z,100110.00
2022-12-23T22:18:53.033Z,100121.31
2022-12-23T22:21:23.239Z,100110.78
2022-12-23T22:23:51.231Z,100132.28
2022-12-23T22:26:24.758Z,100126.59
2022-12-23T22:28:56.236Z,100142.41
2022-12-23T22:31:27.216Z,100144.84
2022-12-23T22:33:53.827Z,100147.88
2022-12-23T22:36:20.311Z,100141.41
2022-12-23T22:38:54.760Z,100149.91
2022-12-23T22:41:21.754Z,100159.84
2022-12-23T22:43:48.996Z,100139.59
2022-12-23T22:46:16.155Z,100184.59
2022-12-23T22:48:42.750Z,100182.97
2022-12-23T22:51:14.849Z,100184.19
2022-12-23T22:53:41.368Z,100195.13
2022-12-23T22:56:08.579Z,100205.66
2022-12-23T22:58:35.004Z,100191.50
2022-12-23T23:01:01.427Z,100199.16
2022-12-23T23:03:28.325Z,100208.91
2022-12-23T23:06:09.365Z,100207.50
2022-12-23T23:08:35.838Z,100210.75
2022-12-23T23:11:04.478Z,100207.06
2022-12-23T23:13:33.826Z,100212.56
2022-12-23T23:16:01.508Z,100216.41
2022-12-23T23:18:29.174Z,100216.63
2022-12-23T23:20:55.712Z,100225.94
2022-12-23T23:23:22.156Z,100232.19
2022-12-23T23:25:48.637Z,100237.09
2022-12-23T23:28:15.390Z,100220.06
2022-12-23T23:30:41.911Z,100249.03
2022-12-23T23:33:09.801Z,100223.47
2022-12-23T23:35:36.292Z,100234.59
2022-12-23T23:38:02.860Z,100238.50
2022-12-23T23:40:29.394Z,100237.06
2022-12-23T23:42:55.795Z,100244.53
2022-12-23T23:45:22.148Z,100241.91
2022-12-23T23:47:48.614Z,100240.50
2022-12-23T23:50:15.470Z,100253.84
2022-12-23T23:52:41.964Z,100255.25
2022-12-23T23:55:08.898Z,100264.59
2022-12-23T23:57:35.469Z,100271.88
